sensor_id;sensor_type;location;lat;lon;timestamp;pressure;altitude;pressure_sealevel;temperature;humidity
6827;BME280;3451;52.476;13.316;2022-08-01T00:01:57;54100.75;;;-145.19;100.00
6827;BME280;3451;52.476;13.316;2022-08-01T00:04:23;54543.47;;;-145.19;100.00
6827;BME280;3451;52.476;13.316;2022-08-01T00:06:50;54096.69;;;-145.19;100.00
6827;BME280;3451;52.476;13.316;2022-08-01T00:09:16;55628.13;;;-145.19;100.00
6827;BME280;3451;52.476;13.316;2022-08-01T00:11:49;56172.59;;;-145.19;100.00
6827;BME280;3451;52.476;13.316;2022-08-01T00:14:26;56461.13;;;-145.19;100.00
6827;BME280;3451;52.476;13.316;2022-08-01T00:16:58;57546.28;;;-145.19;100.00
6827;BME280;3451;52.476;13.316;2022-08-01T00:19:32;57861.34;;;-145.19;100.00
6827;BME280;3451;52.476;13.316;2022-08-01T00:21:59;58408.13;;;-145.19;100.00
6827;BME280;3451;52.476;13.316;2022-08-01T00:24:26;59030.25;;;-145.19;100.00
6827;BME280;3451;52.476;13.316;2022-08-01T00:26:52;59363.72;;;-145.19;100.00
6827;BME280;3451;52.476;13.316;2022-08-01T00:29:19;62221.63;;;-145.19;100.00
6827;BME280;3451;52.476;13.316;2022-08-01T00:32:05;62498.38;;;-145.19;100.00
6827;BME280;3451;52.476;13.316;2022-08-01T00:34:32;63434.59;;;-145.19;100.00
6827;BME280;3451;52.476;13.316;2022-08-01T00:36:59;65611.09;;;-145.19;100.00
6827;BME280;3451;52.476;13.316;2022-08-01T00:39:25;64149.09;;;-145.19;100.00
6827;BME280;3451;52.476;13.316;2022-08-01T00:41:52;65348.38;;;-145.19;100.00
6827;BME280;3451;52.476;13.316;2022-08-01T00:44:26;66731.34;;;-145.19;100.00
6827;BME280;3451;52.476;13.316;2022-08-01T00:46:52;66896.38;;;-145.19;100.00
6827;BME280;3451;52.476;13.316;2022-08-01T00:49:19;70151.16;;;-145.19;100.00
6827;BME280;3451;52.476;13.316;2022-08-01T00:51:45;70934.16;;;-145.19;100.00
6827;BME280;3451;52.476;13.316;2022-08-01T00:54:12;69890.19;;;-145.19;100.00
6827;BME280;3451;52.476;13.316;2022-08-01T00:56:42;69629.22;;;-145.19;100.00
6827;BME280;3451;52.476;13.316;2022-08-01T00:59:11;67448.50;;;-145.19;100.00
6827;BME280;3451;52.476;13.316;2022-08-01T01:01:40;72761.78;;;-145.19;100.00
6827;BME280;3451;52.476;13.316;2022-08-01T01:04:15;71456.25;;;-145.19;100.00
6827;BME280;3451;52.476;13.316;2022-08-01T01:07:04;73022.94;;;-145.19;100.00
6827;BME280;3451;52.476;13.316;2022-08-01T01:12:22;73545.31;;;-145.19;100.00
6827;BME280;3451;52.476;13.316;2022-08-01T01:15:02;73545.31;;;-145.19;100.00
6827;BME280;3451;52.476;13.316;2022-08-01T01:17:57;74590.22;;;-145.19;100.00
6827;BME280;3451;52.476;13.316;2022-08-01T01:20:38;74590.22;;;-145.19;100.00
6827;BME280;3451;52.476;13.316;2022-08-01T01:23:16;75374.13;;;-145.19;100.00
6827;BME280;3451;52.476;13.316;2022-08-01T01:26:01;75374.13;;;-145.19;100.00
6827;BME280;3451;52.476;13.316;2022-08-01T01:28:38;75896.78;;;-145.19;100.00
6827;BME280;3451;52.476;13.316;2022-08-01T01:31:10;79819.00;;;-145.19;100.00
6827;BME280;3451;52.476;13.316;2022-08-01T01:33:39;79557.41;;;-145.19;100.00
6827;BME280;3451;52.476;13.316;2022-08-01T01:36:13;79034.25;;;-145.19;100.00
6827;BME280;3451;52.476;13.316;2022-08-01T01:38:42;80342.25;;;-145.19;100.00
6827;BME280;3451;52.476;13.316;2022-08-01T01:41:11;81388.97;;;-145.19;100.00
6827;BME280;3451;52.476;13.316;2022-08-01T01:43:39;82697.75;;;-145.19;100.00
6827;BME280;3451;52.476;13.316;2022-08-01T01:46:07;82174.19;;;-145.19;100.00
6827;BME280;3451;52.476;13.316;2022-08-01T01:48:35;84530.72;;;-145.19;100.00
6827;BME280;3451;52.476;13.316;2022-08-01T01:51:03;85316.56;;;-145.19;100.00
6827;BME280;3451;52.476;13.316;2022-08-01T01:53:32;84792.66;;;-145.19;100.00
6827;BME280;3451;52.476;13.316;2022-08-01T01:56:00;86364.56;;;-145.19;100.00
6827;BME280;3451;52.476;13.316;2022-08-01T01:58:28;85578.53;;;-145.19;100.00
6827;BME280;3451;52.476;13.316;2022-08-01T02:00:57;86626.59;;;-145.19;100.00
6827;BME280;3451;52.476;13.316;2022-08-01T02:03:28;87150.75;;;-145.19;100.00
6827;BME280;3451;52.476;13.316;2022-08-01T02:05:56;87150.75;;;-145.19;100.00
6827;BME280;3451;52.476;13.316;2022-08-01T02:08:24;88199.22;;;-145.19;100.00
6827;BME280;3451;52.476;13.316;2022-08-01T02:10:53;88985.75;;;-145.19;100.00
6827;BME280;3451;52.476;13.316;2022-08-01T02:13:39;87937.06;;;-145.19;100.00
6827;BME280;3451;52.476;13.316;2022-08-01T02:16:08;89772.47;;;-145.19;100.00
6827;BME280;3451;52.476;13.316;2022-08-01T02:18:37;90034.72;;;-145.19;100.00
6827;BME280;3451;52.476;13.316;2022-08-01T02:21:08;90034.72;;;-145.19;100.00
6827;BME280;3451;52.476;13.316;2022-08-01T02:23:36;91871.06;;;-145.19;100.00
6827;BME280;3451;52.476;13.316;2022-08-01T02:26:09;92133.47;;;-145.19;100.00
6827;BME280;3451;52.476;13.316;2022-08-01T02:28:43;91871.06;;;-145.19;100.00
6827;BME280;3451;52.476;13.316;2022-08-01T02:31:13;92658.31;;;-145.19;100.00
6827;BME280;3451;52.476;13.316;2022-08-01T02:33:45;92920.78;;;-145.19;100.00
6827;BME280;3451;52.476;13.316;2022-08-01T02:36:13;93708.25;;;-145.19;100.00
6827;BME280;3451;52.476;13.316;2022-08-01T02:39:00;94758.44;;;-145.19;100.00
6827;BME280;3451;52.476;13.316;2022-08-01T02:41:29;95546.25;;;-145.19;100.00
6827;BME280;3451;52.476;13.316;2022-08-01T02:44:00;96596.91;;;-145.19;100.00
6827;BME280;3451;52.476;13.316;2022-08-01T02:46:34;97122.34;;;-145.19;100.00
6827;BME280;3451;52.476;13.316;2022-08-01T02:49:03;97122.34;;;-145.19;100.00
6827;BME280;3451;52.476;13.316;2022-08-01T02:51:32;97910.63;;;-145.19;100.00
6827;BME280;3451;52.476;13.316;2022-08-01T02:54:01;97122.34;;;-145.19;100.00
6827;BME280;3451;52.476;13.316;2022-08-01T02:56:30;97910.63;;;-145.19;100.00
6827;BME280;3451;52.476;13.316;2022-08-01T02:59:15;97910.63;;;-145.19;100.00
6827;BME280;3451;52.476;13.316;2022-08-01T03:01:47;98961.91;;;-145.19;100.00
6827;BME280;3451;52.476;13.316;2022-08-01T03:04:17;98961.91;;;-145.19;100.00
6827;BME280;3451;52.476;13.316;2022-08-01T03:06:46;98436.22;;;-145.19;100.00
6827;BME280;3451;52.476;13.316;2022-08-01T03:09:13;99487.66;;;-145.19;100.00
6827;BME280;3451;52.476;13.316;2022-08-01T03:11:42;100013.47;;;-145.19;100.00
6827;BME280;3451;52.476;13.316;2022-08-01T03:14:11;100013.47;;;-145.19;100.00
6827;BME280;3451;52.476;13.316;2022-08-01T03:16:39;100013.47;;;-145.19;100.00
6827;BME280;3451;52.476;13.316;2022-08-01T03:19:09;100276.41;;;-145.19;100.00
6827;BME280;3451;52.476;13.316;2022-08-01T03:21:38;100539.34;;;-145.19;100.00
6827;BME280;3451;52.476;13.316;2022-08-01T03:24:06;100539.34;;;-145.19;100.00
6827;BME280;3451;52.476;13.316;2022-08-01T03:26:35;100539.34;;;-145.19;100.00
6827;BME280;3451;52.476;13.316;2022-08-01T03:29:05;101328.28;;;-145.19;100.00
6827;BME280;3451;52.476;13.316;2022-08-01T03:31:37;101328.28;;;-145.19;100.00
6827;BME280;3451;52.476;13.316;2022-08-01T03:34:05;101591.31;;;-145.19;100.00
6827;BME280;3451;52.476;13.316;2022-08-01T03:36:32;101854.34;;;-145.19;100.00
6827;BME280;3451;52.476;13.316;2022-08-01T03:39:03;102117.38;;;-145.19;100.00
6827;BME280;3451;52.476;13.316;2022-08-01T03:41:34;102380.44;;;-145.19;100.00
6827;BME280;3451;52.476;13.316;2022-08-01T03:44:10;102380.44;;;-145.19;100.00
6827;BME280;3451;52.476;13.316;2022-08-01T03:46:43;102380.44;;;-145.19;100.00
6827;BME280;3451;52.476;13.316;2022-08-01T03:49:14;102117.38;;;-145.19;100.00
6827;BME280;3451;52.476;13.316;2022-08-01T03:51:44;101854.34;;;-145.19;100.00
6827;BME280;3451;52.476;13.316;2022-08-01T03:54:15;101854.34;;;-145.19;100.00
6827;BME280;3451;52.476;13.316;2022-08-01T03:56:43;102117.38;;;-145.19;100.00
6827;BME280;3451;52.476;13.316;2022-08-01T03:59:11;103169.75;;;-145.19;100.00
6827;BME280;3451;52.476;13.316;2022-08-01T04:01:38;102643.53;;;-145.19;100.00
6827;BME280;3451;52.476;13.316;2022-08-01T04:04:05;102643.53;;;-145.19;100.00
6827;BME280;3451;52.476;13.316;2022-08-01T04:06:32;102643.53;;;-145.19;100.00
6827;BME280;3451;52.476;13.316;2022-08-01T04:08:58;102380.44;;;-145.19;100.00
6827;BME280;3451;52.476;13.316;2022-08-01T04:11:26;103169.75;;;-145.19;100.00
6827;BME280;3451;52.476;13.316;2022-08-01T04:13:54;103169.75;;;-145.19;100.00
6827;BME280;3451;52.476;13.316;2022-08-01T04:16:21;102643.53;;;-145.19;100.00
6827;BME280;3451;52.476;13.316;2022-08-01T04:18:48;103169.75;;;-145.19;100.00
6827;BME280;3451;52.476;13.316;2022-08-01T04:21:18;103432.91;;;-145.19;100.00
6827;BME280;3451;52.476;13.316;2022-08-01T04:23:46;103432.91;;;-145.19;100.00
6827;BME280;3451;52.476;13.316;2022-08-01T04:26:17;104222.41;;;-145.19;100.00
6827;BME280;3451;52.476;13.316;2022-08-01T04:28:44;104748.81;;;-145.19;100.00
6827;BME280;3451;52.476;13.316;2022-08-01T04:31:13;105275.31;;;-145.19;100.00
6827;BME280;3451;52.476;13.316;2022-08-01T04:33:46;106328.50;;;-145.19;100.00
6827;BME280;3451;52.476;13.316;2022-08-01T04:36:14;106328.50;;;-145.19;100.00
6827;BME280;3451;52.476;13.316;2022-08-01T04:38:45;106591.84;;;-145.19;100.00
6827;BME280;3451;52.476;13.316;2022-08-01T04:41:12;106855.22;;;-145.19;100.00
6827;BME280;3451;52.476;13.316;2022-08-01T04:43:39;107118.59;;;-145.19;100.00
6827;BME280;3451;52.476;13.316;2022-08-01T04:46:10;107381.97;;;-145.19;100.00
6827;BME280;3451;52.476;13.316;2022-08-01T04:48:38;107645.38;;;-145.19;100.00
6827;BME280;3451;52.476;13.316;2022-08-01T04:51:12;107381.97;;;-145.19;100.00
6827;BME280;3451;52.476;13.316;2022-08-01T04:53:39;107381.97;;;-145.19;100.00
6827;BME280;3451;52.476;13.316;2022-08-01T04:56:06;107645.38;;;-145.19;100.00
6827;BME280;3451;52.476;13.316;2022-08-01T04:58:34;107645.38;;;-145.19;100.00
6827;BME280;3451;52.476;13.316;2022-08-01T05:01:00;107645.38;;;-145.19;100.00
6827;BME280;3451;52.476;13.316;2022-08-01T05:03:26;107645.38;;;-145.19;100.00
6827;BME280;3451;52.476;13.316;2022-08-01T05:05:53;107645.38;;;-145.19;100.00
6827;BME280;3451;52.476;13.316;2022-08-01T05:08:19;107908.81;;;-145.19;100.00
6827;BME280;3451;52.476;13.316;2022-08-01T05:10:46;108172.25;;;-145.19;100.00
6827;BME280;3451;52.476;13.316;2022-08-01T05:13:13;108699.19;;;-145.19;100.00
6827;BME280;3451;52.476;13.316;2022-08-01T05:15:39;108172.25;;;-145.19;100.00
6827;BME280;3451;52.476;13.316;2022-08-01T05:18:05;108435.72;;;-145.19;100.00
6827;BME280;3451;52.476;13.316;2022-08-01T05:20:35;108435.72;;;-145.19;100.00
6827;BME280;3451;52.476;13.316;2022-08-01T05:23:01;108699.19;;;-145.19;100.00
6827;BME280;3451;52.476;13.316;2022-08-01T05:25:28;108699.19;;;-145.19;100.00
6827;BME280;3451;52.476;13.316;2022-08-01T05:28:14;109226.19;;;-145.19;100.00
6827;BME280;3451;52.476;13.316;2022-08-01T05:30:44;109226.19;;;-145.19;100.00
6827;BME280;3451;52.476;13.316;2022-08-01T05:33:11;108962.69;;;-145.19;100.00
6827;BME280;3451;52.476;13.316;2022-08-01T05:35:37;109489.72;;;-145.19;100.00
6827;BME280;3451;52.476;13.316;2022-08-01T05:38:14;109489.72;;;-145.19;100.00
6827;BME280;3451;52.476;13.316;2022-08-01T05:40:40;109489.72;;;-145.19;100.00
6827;BME280;3451;52.476;13.316;2022-08-01T05:43:07;109226.19;;;-145.19;100.00
6827;BME280;3451;52.476;13.316;2022-08-01T05:45:33;108962.69;;;-145.19;100.00
6827;BME280;3451;52.476;13.316;2022-08-01T05:48:00;108962.69;;;-145.19;100.00
6827;BME280;3451;52.476;13.316;2022-08-01T05:50:26;108699.19;;;-145.19;100.00
6827;BME280;3451;52.476;13.316;2022-08-01T05:52:52;108699.19;;;-145.19;100.00
6827;BME280;3451;52.476;13.316;2022-08-01T05:55:19;108699.19;;;-145.19;100.00
6827;BME280;3451;52.476;13.316;2022-08-01T05:57:45;108699.19;;;-145.19;100.00
6827;BME280;3451;52.476;13.316;2022-08-01T06:00:12;108435.72;;;-145.19;100.00
6827;BME280;3451;52.476;13.316;2022-08-01T06:02:41;108172.25;;;-145.19;100.00
6827;BME280;3451;52.476;13.316;2022-08-01T06:05:09;108435.72;;;-145.19;100.00
6827;BME280;3451;52.476;13.316;2022-08-01T06:07:39;108435.72;;;-145.19;100.00
6827;BME280;3451;52.476;13.316;2022-08-01T06:10:06;108435.72;;;-145.19;100.00
6827;BME280;3451;52.476;13.316;2022-08-01T06:12:34;107908.81;;;-145.19;100.00
6827;BME280;3451;52.476;13.316;2022-08-01T06:15:01;107908.81;;;-145.19;100.00
6827;BME280;3451;52.476;13.316;2022-08-01T06:17:28;108172.25;;;-145.19;100.00
6827;BME280;3451;52.476;13.316;2022-08-01T06:19:54;108699.19;;;-145.19;100.00
6827;BME280;3451;52.476;13.316;2022-08-01T06:22:21;108962.69;;;-145.19;100.00
6827;BME280;3451;52.476;13.316;2022-08-01T06:24:48;109489.72;;;-145.19;100.00
6827;BME280;3451;52.476;13.316;2022-08-01T06:27:14;110280.41;;;-145.19;100.00
6827;BME280;3451;52.476;13.316;2022-08-01T06:29:47;110807.63;;;-145.19;100.00
6827;BME280;3451;52.476;13.316;2022-08-01T06:32:22;111071.25;;;-145.19;100.00
6827;BME280;3451;52.476;13.316;2022-08-01T06:34:53;111334.88;;;-145.19;100.00
6827;BME280;3451;52.476;13.316;2022-08-01T06:37:19;111598.56;;;-145.19;100.00
6827;BME280;3451;52.476;13.316;2022-08-01T06:39:46;111862.22;;;-145.19;100.00
6827;BME280;3451;52.476;13.316;2022-08-01T06:42:12;111862.22;;;-145.19;100.00
6827;BME280;3451;52.476;13.316;2022-08-01T06:44:41;112125.94;;;-145.19;100.00
6827;BME280;3451;52.476;13.316;2022-08-01T06:47:07;112653.38;;;-145.19;100.00
6827;BME280;3451;52.476;13.316;2022-08-01T06:49:34;112653.38;;;-145.19;100.00
6827;BME280;3451;52.476;13.316;2022-08-01T06:52:00;112389.66;;;-145.19;100.00
6827;BME280;3451;52.476;13.316;2022-08-01T06:54:28;112125.94;;;-145.19;100.00
6827;BME280;3451;52.476;13.316;2022-08-01T06:56:54;112125.94;;;-145.19;100.00
6827;BME280;3451;52.476;13.316;2022-08-01T06:59:20;111598.56;;;-145.19;100.00
6827;BME280;3451;52.476;13.316;2022-08-01T07:01:47;111334.88;;;-145.19;100.00
6827;BME280;3451;52.476;13.316;2022-08-01T07:04:13;111598.56;;;-145.19;100.00
6827;BME280;3451;52.476;13.316;2022-08-01T07:06:40;111334.88;;;-145.19;100.00
6827;BME280;3451;52.476;13.316;2022-08-01T07:09:06;111334.88;;;-145.19;100.00
6827;BME280;3451;52.476;13.316;2022-08-01T07:11:39;111071.25;;;-145.19;100.00
6827;BME280;3451;52.476;13.316;2022-08-01T07:14:05;110807.63;;;-145.19;100.00
6827;BME280;3451;52.476;13.316;2022-08-01T07:16:32;110544.00;;;-145.19;100.00
6827;BME280;3451;52.476;13.316;2022-08-01T07:18:58;109753.25;;;-145.19;100.00
6827;BME280;3451;52.476;13.316;2022-08-01T07:21:25;109226.19;;;-145.19;100.00
6827;BME280;3451;52.476;13.316;2022-08-01T07:24:07;108699.19;;;-145.19;100.00
6827;BME280;3451;52.476;13.316;2022-08-01T07:26:44;108699.19;;;-145.19;100.00
6827;BME280;3451;52.476;13.316;2022-08-01T07:29:21;108435.72;;;-145.19;100.00
6827;BME280;3451;52.476;13.316;2022-08-01T07:31:47;108172.25;;;-145.19;100.00
6827;BME280;3451;52.476;13.316;2022-08-01T07:34:14;108435.72;;;-145.19;100.00
6827;BME280;3451;52.476;13.316;2022-08-01T07:36:40;107645.38;;;-145.19;100.00
6827;BME280;3451;52.476;13.316;2022-08-01T07:39:07;106855.22;;;-145.19;100.00
6827;BME280;3451;52.476;13.316;2022-08-01T07:41:33;105801.88;;;-145.19;100.00
6827;BME280;3451;52.476;13.316;2022-08-01T07:44:20;105012.06;;;-145.19;100.00
6827;BME280;3451;52.476;13.316;2022-08-01T07:46:47;104485.59;;;-145.19;100.00
6827;BME280;3451;52.476;13.316;2022-08-01T07:49:13;104222.41;;;-145.19;100.00
6827;BME280;3451;52.476;13.316;2022-08-01T07:51:40;102906.63;;;-145.19;100.00
6827;BME280;3451;52.476;13.316;2022-08-01T07:54:06;102117.38;;;-145.19;100.00
6827;BME280;3451;52.476;13.316;2022-08-01T07:56:33;102380.44;;;-145.19;100.00
6827;BME280;3451;52.476;13.316;2022-08-01T07:59:00;102380.44;;;-145.19;100.00
6827;BME280;3451;52.476;13.316;2022-08-01T08:01:26;101854.34;;;-145.19;100.00
6827;BME280;3451;52.476;13.316;2022-08-01T08:03:53;101065.28;;;-145.19;100.00
6827;BME280;3451;52.476;13.316;2022-08-01T08:06:22;99750.53;;;-145.19;100.00
6827;BME280;3451;52.476;13.316;2022-08-01T08:08:48;99750.53;;;-145.19;100.00
6827;BME280;3451;52.476;13.316;2022-08-01T08:11:15;98699.06;;;-145.19;100.00
6827;BME280;3451;52.476;13.316;2022-08-01T08:13:41;97910.63;;;-145.19;100.00
6827;BME280;3451;52.476;13.316;2022-08-01T08:16:09;97122.34;;;-145.19;100.00
6827;BME280;3451;52.476;13.316;2022-08-01T08:18:35;97385.09;;;-145.19;100.00
6827;BME280;3451;52.476;13.316;2022-08-01T08:21:03;97122.34;;;-145.19;100.00
6827;BME280;3451;52.476;13.316;2022-08-01T08:23:32;96596.91;;;-145.19;100.00
6827;BME280;3451;52.476;13.316;2022-08-01T08:26:17;95808.88;;;-145.19;100.00
6827;BME280;3451;52.476;13.316;2022-08-01T08:28:44;96071.53;;;-145.19;100.00
6827;BME280;3451;52.476;13.316;2022-08-01T08:31:10;95283.63;;;-145.19;100.00
6827;BME280;3451;52.476;13.316;2022-08-01T08:33:57;93183.25;;;-145.19;100.00
6827;BME280;3451;52.476;13.316;2022-08-01T08:36:24;91346.31;;;-145.19;100.00
6827;BME280;3451;52.476;13.316;2022-08-01T08:38:57;90559.31;;;-145.19;100.00
6827;BME280;3451;52.476;13.316;2022-08-01T08:41:23;84530.72;;;-145.19;100.00
6827;BME280;3451;52.476;13.316;2022-08-01T08:43:50;81912.41;;;-145.19;100.00
6827;BME280;3451;52.476;13.316;2022-08-01T08:46:18;78772.72;;;-145.19;100.00
6827;BME280;3451;52.476;13.316;2022-08-01T08:48:56;77465.22;;;-145.19;100.00
6827;BME280;3451;52.476;13.316;2022-08-01T08:51:25;76680.94;;;-145.19;100.00
6827;BME280;3451;52.476;13.316;2022-08-01T08:53:55;77726.69;;;-145.19;100.00
6827;BME280;3451;52.476;13.316;2022-08-01T08:56:23;77203.78;;;-145.19;100.00
6827;BME280;3451;52.476;13.316;2022-08-01T08:58:53;75112.81;;;-145.19;100.00
6827;BME280;3451;52.476;13.316;2022-08-01T09:01:20;70934.16;;;-145.19;100.00
6827;BME280;3451;52.476;13.316;2022-08-01T09:03:48;69046.22;;;-145.19;100.00
6827;BME280;3451;52.476;13.316;2022-08-01T09:06:15;66262.84;;;-145.19;100.00
6827;BME280;3451;52.476;13.316;2022-08-01T09:08:41;64865.75;;;-145.19;100.00
6827;BME280;3451;52.476;13.316;2022-08-01T09:11:08;65040.88;;;-145.19;100.00
6827;BME280;3451;52.476;13.316;2022-08-01T09:13:34;67640.03;;;-145.19;100.00
6827;BME280;3451;52.476;13.316;2022-08-01T09:16:00;69368.28;;;-145.19;100.00
6827;BME280;3451;52.476;13.316;2022-08-01T09:18:38;72761.78;;;-145.19;100.00
6827;BME280;3451;52.476;13.316;2022-08-01T09:23:47;74328.97;;;-145.19;100.00
6827;BME280;3451;52.476;13.316;2022-08-01T09:26:22;72500.63;;;-145.19;100.00
6827;BME280;3451;52.476;13.316;2022-08-01T09:28:53;73545.31;;;-145.19;100.00
6827;BME280;3451;52.476;13.316;2022-08-01T09:31:20;74851.50;;;-145.19;100.00
6827;BME280;3451;52.476;13.316;2022-08-01T09:33:58;75635.44;;;-145.19;100.00
6827;BME280;3451;52.476;13.316;2022-08-01T09:36:27;75112.81;;;-145.19;100.00
6827;BME280;3451;52.476;13.316;2022-08-01T09:39:13;75896.78;;;-145.19;100.00
6827;BME280;3451;52.476;13.316;2022-08-01T09:41:40;74851.50;;;-145.19;100.00
6827;BME280;3451;52.476;13.316;2022-08-01T09:44:07;71978.41;;;-145.19;100.00
6827;BME280;3451;52.476;13.316;2022-08-01T09:46:33;71456.25;;;-145.19;100.00
6827;BME280;3451;52.476;13.316;2022-08-01T09:49:05;71195.19;;;-145.19;100.00
6827;BME280;3451;52.476;13.316;2022-08-01T09:51:37;70934.16;;;-145.19;100.00
6827;BME280;3451;52.476;13.316;2022-08-01T09:54:32;70854.63;;;-145.19;100.00
6827;BME280;3451;52.476;13.316;2022-08-01T09:57:13;71456.25;;;-145.19;100.00
6827;BME280;3451;52.476;13.316;2022-08-01T09:59:45;72500.63;;;-145.19;100.00
6827;BME280;3451;52.476;13.316;2022-08-01T10:02:38;72500.63;;;-145.19;100.00
6827;BME280;3451;52.476;13.316;2022-08-01T10:05:10;72500.63;;;-145.19;100.00
6827;BME280;3451;52.476;13.316;2022-08-01T10:07:57;74851.50;;;-145.19;100.00
6827;BME280;3451;52.476;13.316;2022-08-01T10:10:24;72500.63;;;-145.19;100.00
6827;BME280;3451;52.476;13.316;2022-08-01T10:12:56;72500.63;;;-145.19;100.00
6827;BME280;3451;52.476;13.316;2022-08-01T10:15:24;73022.94;;;-145.19;100.00
6827;BME280;3451;52.476;13.316;2022-08-01T10:18:04;73284.09;;;-145.19;100.00
6827;BME280;3451;52.476;13.316;2022-08-01T10:20:42;74067.72;;;-145.19;100.00
6827;BME280;3451;52.476;13.316;2022-08-01T10:23:09;74590.22;;;-145.19;100.00
6827;BME280;3451;52.476;13.316;2022-08-01T10:25:40;74328.97;;;-145.19;100.00
6827;BME280;3451;52.476;13.316;2022-08-01T10:28:18;74590.22;;;-145.19;100.00
6827;BME280;3451;52.476;13.316;2022-08-01T10:30:50;75635.44;;;-145.19;100.00
6827;BME280;3451;52.476;13.316;2022-08-01T10:33:21;75896.78;;;-145.19;100.00
6827;BME280;3451;52.476;13.316;2022-08-01T10:36:08;76942.34;;;-145.19;100.00
6827;BME280;3451;52.476;13.316;2022-08-01T10:38:36;76680.94;;;-145.19;100.00
6827;BME280;3451;52.476;13.316;2022-08-01T10:41:04;72500.63;;;-145.19;100.00
6827;BME280;3451;52.476;13.316;2022-08-01T10:43:34;72761.78;;;-145.19;100.00
6827;BME280;3451;52.476;13.316;2022-08-01T10:46:03;73022.94;;;-145.19;100.00
6827;BME280;3451;52.476;13.316;2022-08-01T10:48:53;71570.47;;;-145.19;100.00
6827;BME280;3451;52.476;13.316;2022-08-01T10:51:21;70210.28;;;-145.19;100.00
6827;BME280;3451;52.476;13.316;2022-08-01T10:54:11;69873.88;;;-145.19;100.00
6827;BME280;3451;52.476;13.316;2022-08-01T10:56:43;69594.56;;;-145.19;100.00
6827;BME280;3451;52.476;13.316;2022-08-01T10:59:09;69714.84;;;-145.19;100.00
6827;BME280;3451;52.476;13.316;2022-08-01T11:01:38;68740.47;;;-145.19;100.00
6827;BME280;3451;52.476;13.316;2022-08-01T11:04:14;68461.25;;;-145.19;100.00
6827;BME280;3451;52.476;13.316;2022-08-01T11:06:54;68489.78;;;-145.19;100.00
6827;BME280;3451;52.476;13.316;2022-08-01T11:09:38;67214.19;;;-145.19;100.00
6827;BME280;3451;52.476;13.316;2022-08-01T11:12:10;66821.00;;;-145.19;100.00
6827;BME280;3451;52.476;13.316;2022-08-01T11:17:37;65075.50;;;-145.19;100.00
6827;BME280;3451;52.476;13.316;2022-08-01T11:20:31;64210.16;;;-145.19;100.00
6827;BME280;3451;52.476;13.316;2022-08-01T11:28:27;67356.81;;;-145.19;100.00
6827;BME280;3451;52.476;13.316;2022-08-01T11:38:45;76942.34;;;-145.19;100.00
6827;BME280;3451;52.476;13.316;2022-08-01T11:44:12;74851.50;;;-145.19;100.00
6827;BME280;3451;52.476;13.316;2022-08-01T11:49:23;79034.25;;;-145.19;100.00
6827;BME280;3451;52.476;13.316;2022-08-01T11:54:27;80080.63;;;-145.19;100.00
6827;BME280;3451;52.476;13.316;2022-08-01T11:57:04;80865.56;;;-145.19;100.00
6827;BME280;3451;52.476;13.316;2022-08-01T11:59:38;81912.41;;;-145.19;100.00
6827;BME280;3451;52.476;13.316;2022-08-01T12:02:18;82174.19;;;-145.19;100.00
6827;BME280;3451;52.476;13.316;2022-08-01T12:05:07;81127.25;;;-145.19;100.00
6827;BME280;3451;52.476;13.316;2022-08-01T12:07:38;79557.41;;;-145.19;100.00
6827;BME280;3451;52.476;13.316;2022-08-01T12:10:10;74590.22;;;-145.19;100.00
6827;BME280;3451;52.476;13.316;2022-08-01T12:12:45;70583.41;;;-145.19;100.00
6827;BME280;3451;52.476;13.316;2022-08-01T12:15:12;68764.94;;;-145.19;100.00
6827;BME280;3451;52.476;13.316;2022-08-01T12:17:47;67603.34;;;-145.19;100.00
6827;BME280;3451;52.476;13.316;2022-08-01T12:20:36;66757.84;;;-145.19;100.00
6827;BME280;3451;52.476;13.316;2022-08-01T12:23:07;66735.44;;;-145.19;100.00
6827;BME280;3451;52.476;13.316;2022-08-01T12:25:36;65733.28;;;-145.19;100.00
6827;BME280;3451;52.476;13.316;2022-08-01T12:28:07;64240.69;;;-145.19;100.00
6827;BME280;3451;52.476;13.316;2022-08-01T12:30:36;63051.94;;;-145.19;100.00
6827;BME280;3451;52.476;13.316;2022-08-01T12:33:04;59973.78;;;-145.19;100.00
6827;BME280;3451;52.476;13.316;2022-08-01T12:35:32;59068.88;;;-145.19;100.00
6827;BME280;3451;52.476;13.316;2022-08-01T12:38:33;59101.41;;;-145.19;100.00
6827;BME280;3451;52.476;13.316;2022-08-01T12:40:53;58219.09;;;-145.19;100.00
6827;BME280;3451;52.476;13.316;2022-08-01T12:43:21;57387.75;;;-145.19;100.00
6827;BME280;3451;52.476;13.316;2022-08-01T12:45:55;56617.56;;;-145.19;100.00
6827;BME280;3451;52.476;13.316;2022-08-01T12:48:24;56162.44;;;-145.19;100.00
6827;BME280;3451;52.476;13.316;2022-08-01T12:50:51;56142.13;;;-145.19;100.00
6827;BME280;3451;52.476;13.316;2022-08-01T12:53:19;55884.09;;;-145.19;100.00
6827;BME280;3451;52.476;13.316;2022-08-01T12:55:55;54827.81;;;-145.19;100.00
6827;BME280;3451;52.476;13.316;2022-08-01T12:58:31;55232.00;;;-145.19;100.00
6827;BME280;3451;52.476;13.316;2022-08-01T13:01:05;54884.69;;;-145.19;100.00
6827;BME280;3451;52.476;13.316;2022-08-01T13:03:32;54740.47;;;-145.19;100.00
6827;BME280;3451;52.476;13.316;2022-08-01T13:05:59;55022.78;;;-145.19;100.00
6827;BME280;3451;52.476;13.316;2022-08-01T13:11:06;54114.97;;;-145.19;100.00
6827;BME280;3451;52.476;13.316;2022-08-01T13:13:42;54409.44;;;-145.19;100.00
6827;BME280;3451;52.476;13.316;2022-08-01T13:16:09;54929.38;;;-145.19;100.00
6827;BME280;3451;52.476;13.316;2022-08-01T13:18:53;54372.88;;;-145.19;100.00
6827;BME280;3451;52.476;13.316;2022-08-01T13:21:22;54624.72;;;-145.19;100.00
6827;BME280;3451;52.476;13.316;2022-08-01T13:24:06;54391.16;;;-145.19;100.00
6827;BME280;3451;52.476;13.316;2022-08-01T13:26:38;54019.53;;;-145.19;100.00